createdAt,value
2023-04-07T00:01:15.156Z,98654.00
2023-04-07T00:03:45.082Z,98655.00
2023-04-07T00:06:14.941Z,98666.00
2023-04-07T00:08:44.248Z,98653.00
2023-04-07T00:11:13.734Z,98663.00
2023-04-07T00:13:43.011Z,98662.00
2023-04-07T00:16:12.504Z,98668.00
2023-04-07T00:18:42.516Z,98666.00
2023-04-07T00:21:11.967Z,98664.00
2023-04-07T00:23:41.306Z,98680.00
2023-04-07T00:26:10.733Z,98675.00
2023-04-07T00:28:40.086Z,98670.00
2023-04-07T00:31:16.937Z,98672.00
2023-04-07T00:33:46.330Z,98683.00
2023-04-07T00:36:15.623Z,98680.00
2023-04-07T00:38:44.971Z,98689.00
2023-04-07T00:41:14.344Z,98695.00
2023-04-07T00:43:43.650Z,98694.00
2023-04-07T00:46:12.983Z,98702.00
2023-04-07T00:48:42.483Z,98708.00
2023-04-07T00:51:12.121Z,98715.00
2023-04-07T00:53:42.641Z,98721.00
2023-04-07T00:56:12.238Z,98735.00
2023-04-07T00:58:41.706Z,98726.00
2023-04-07T01:01:26.431Z,98743.00
2023-04-07T01:04:14.452Z,98748.00
2023-04-07T01:06:58.484Z,98760.00
2023-04-07T01:09:48.634Z,98762.00
2023-04-07T01:12:31.113Z,98774.00
2023-04-07T01:15:10.756Z,98772.00
2023-04-07T01:17:59.756Z,98785.00
2023-04-07T01:20:36.035Z,98793.00
2023-04-07T01:23:10.153Z,98794.00
2023-04-07T01:26:34.798Z,98797.00
2023-04-07T01:29:28.380Z,98801.00
2023-04-07T01:32:02.808Z,98802.00
2023-04-07T01:34:34.348Z,98800.00
2023-04-07T01:37:06.479Z,98809.00
2023-04-07T01:39:38.114Z,98803.00
2023-04-07T01:42:08.924Z,98804.00
2023-04-07T01:44:42.447Z,98815.00
2023-04-07T01:47:12.150Z,98824.00
2023-04-07T01:49:47.445Z,98821.00
2023-04-07T01:52:20.129Z,98825.00
2023-04-07T01:54:50.676Z,98826.00
2023-04-07T01:57:19.899Z,98829.00
2023-04-07T01:59:49.567Z,98831.00
2023-04-07T02:02:19.122Z,98837.00
2023-04-07T02:05:10.793Z,98837.00
2023-04-07T02:07:52.716Z,98835.00
2023-04-07T02:10:27.436Z,98841.00
2023-04-07T02:12:58.085Z,98858.00
2023-04-07T02:15:29.289Z,98862.00
2023-04-07T02:18:01.151Z,98861.00
2023-04-07T02:20:32.826Z,98863.00
2023-04-07T02:23:02.266Z,98862.00
2023-04-07T02:25:33.864Z,98863.00
2023-04-07T02:28:03.509Z,98866.00
2023-04-07T02:30:33.455Z,98866.00
2023-04-07T02:33:02.746Z,98867.00
2023-04-07T02:35:32.291Z,98877.00
2023-04-07T02:38:01.572Z,98873.00
2023-04-07T02:40:30.937Z,98874.00
2023-04-07T02:43:00.627Z,98875.00
2023-04-07T02:45:30.073Z,98875.00
2023-04-07T02:47:59.367Z,98877.00
2023-04-07T02:50:30.104Z,98883.00
2023-04-07T02:52:59.315Z,98880.00
2023-04-07T02:55:28.521Z,98885.00
2023-04-07T02:57:57.696Z,98888.00
2023-04-07T03:00:27.903Z,98883.00
2023-04-07T03:02:57.328Z,98884.00
2023-04-07T03:05:26.852Z,98878.00
2023-04-07T03:07:56.113Z,98881.00
2023-04-07T03:10:25.498Z,98883.00
2023-04-07T03:12:54.683Z,98871.00
2023-04-07T03:15:24.033Z,98873.00
2023-04-07T03:17:53.358Z,98863.00
2023-04-07T03:20:23.218Z,98864.00
2023-04-07T03:22:52.456Z,98857.00
2023-04-07T03:25:22.351Z,98849.00
2023-04-07T03:27:51.603Z,98852.00
2023-04-07T03:30:20.917Z,98849.00
2023-04-07T03:32:50.226Z,98849.00
2023-04-07T03:35:19.606Z,98849.00
2023-04-07T03:37:48.838Z,98845.00
2023-04-07T03:40:18.222Z,98839.00
2023-04-07T03:42:48.385Z,98837.00
2023-04-07T03:45:18.459Z,98838.00
2023-04-07T03:47:47.847Z,98841.00
2023-04-07T03:50:17.152Z,98839.00
2023-04-07T03:52:46.450Z,98839.00
2023-04-07T03:55:15.839Z,98836.00
2023-04-07T03:57:45.068Z,98849.00
2023-04-07T04:00:15.391Z,98846.00
2023-04-07T04:02:44.789Z,98846.00
2023-04-07T04:05:14.079Z,98846.00
2023-04-07T04:07:43.390Z,98847.00
2023-04-07T04:10:13.108Z,98850.00
2023-04-07T04:12:43.049Z,98856.00
2023-04-07T04:15:13.019Z,98849.00
2023-04-07T04:17:42.588Z,98850.00
2023-04-07T04:20:12.488Z,98848.00
2023-04-07T04:22:41.701Z,98843.00
2023-04-07T04:25:11.708Z,98848.00
2023-04-07T04:27:40.966Z,98840.00
2023-04-07T04:30:10.682Z,98844.00
2023-04-07T04:32:40.550Z,98841.00
2023-04-07T04:35:10.520Z,98833.00
2023-04-07T04:37:39.868Z,98831.00
2023-04-07T04:40:10.377Z,98827.00
2023-04-07T04:42:40.228Z,98820.00
2023-04-07T04:45:10.409Z,98815.00
2023-04-07T04:47:44.198Z,98812.00
2023-04-07T04:50:14.187Z,98806.00
2023-04-07T04:52:43.380Z,98806.00
2023-04-07T04:55:14.496Z,98804.00
2023-04-07T04:57:43.984Z,98802.00
2023-04-07T05:00:14.202Z,98798.00
2023-04-07T05:02:44.288Z,98798.00
2023-04-07T05:05:14.298Z,98796.00
2023-04-07T05:07:44.725Z,98788.00
2023-04-07T05:10:15.536Z,98788.00
2023-04-07T05:12:44.831Z,98785.00
2023-04-07T05:15:16.190Z,98769.00
2023-04-07T05:17:48.598Z,98765.00
2023-04-07T05:20:18.893Z,98764.00
2023-04-07T05:22:48.055Z,98755.00
2023-04-07T05:25:17.369Z,98760.00
2023-04-07T05:27:46.751Z,98746.00
2023-04-07T05:30:16.998Z,98734.00
2023-04-07T05:32:46.703Z,98727.00
2023-04-07T05:35:16.322Z,98721.00
2023-04-07T05:37:45.536Z,98716.00
2023-04-07T05:40:15.131Z,98714.00
2023-04-07T05:42:44.703Z,98706.00
2023-04-07T05:45:14.054Z,98708.00
2023-04-07T05:47:43.628Z,98699.00
2023-04-07T05:50:15.213Z,98695.00
2023-04-07T05:52:44.514Z,98673.00
2023-04-07T05:55:13.851Z,98683.00
2023-04-07T05:57:43.687Z,98675.00
2023-04-07T06:00:13.725Z,98676.00
2023-04-07T06:02:43.433Z,98668.00
2023-04-07T06:05:12.704Z,98666.00
2023-04-07T06:07:41.982Z,98665.00
2023-04-07T06:10:11.493Z,98659.00
2023-04-07T06:12:41.083Z,98653.00
2023-04-07T06:15:11.170Z,98656.00
2023-04-07T06:17:40.761Z,98653.00
2023-04-07T06:20:11.075Z,98646.00
2023-04-07T06:22:40.916Z,98647.00
2023-04-07T06:25:10.871Z,98646.00
2023-04-07T06:27:40.137Z,98644.00
2023-04-07T06:30:10.473Z,98639.00
2023-04-07T06:32:39.790Z,98639.00
2023-04-07T06:35:09.643Z,98632.00
2023-04-07T06:37:40.280Z,98621.00
2023-04-07T06:40:10.566Z,98621.00
2023-04-07T06:42:39.950Z,98610.00
2023-04-07T06:45:10.283Z,98614.00
2023-04-07T06:47:39.532Z,98611.00
2023-04-07T06:50:10.175Z,98601.00
2023-04-07T06:52:39.509Z,98601.00
2023-04-07T06:55:09.794Z,98594.00
2023-04-07T06:57:38.949Z,98593.00
2023-04-07T07:00:10.195Z,98586.00
2023-04-07T07:02:39.563Z,98579.00
2023-04-07T07:05:09.458Z,98572.00
2023-04-07T07:07:39.082Z,98561.00
2023-04-07T07:10:14.350Z,98561.00
2023-04-07T07:12:43.663Z,98556.00
2023-04-07T07:15:13.220Z,98554.00
2023-04-07T07:17:42.751Z,98548.00
2023-04-07T07:20:13.510Z,98543.00
2023-04-07T07:22:44.190Z,98541.00
2023-04-07T07:25:13.538Z,98538.00
2023-04-07T07:27:42.737Z,98528.00
2023-04-07T07:30:12.734Z,98523.00
2023-04-07T07:32:42.154Z,98518.00
2023-04-07T07:35:11.665Z,98510.00
2023-04-07T07:37:41.311Z,98503.00
2023-04-07T07:40:10.875Z,98504.00
2023-04-07T07:42:40.823Z,98505.00
2023-04-07T07:45:10.875Z,98513.00
2023-04-07T07:47:40.095Z,98506.00
2023-04-07T07:50:09.802Z,98507.00
2023-04-07T07:52:39.430Z,98505.00
2023-04-07T07:55:13.534Z,98501.00
2023-04-07T07:57:42.811Z,98495.00
2023-04-07T08:00:13.096Z,98496.00
2023-04-07T08:02:42.453Z,98497.00
2023-04-07T08:05:14.129Z,98493.00
2023-04-07T08:07:44.887Z,98489.00
2023-04-07T08:10:30.599Z,98494.00
2023-04-07T08:13:00.531Z,98492.00
2023-04-07T08:15:29.849Z,98485.00
2023-04-07T08:18:01.188Z,98488.00
2023-04-07T08:20:31.679Z,98483.00
2023-04-07T08:23:03.188Z,98475.00
2023-04-07T08:25:36.349Z,98481.00
2023-04-07T08:28:06.356Z,98474.00
2023-04-07T08:30:35.700Z,98466.00
2023-04-07T08:33:07.816Z,98461.00
2023-04-07T08:35:38.612Z,98457.00
2023-04-07T08:38:10.509Z,98450.00
2023-04-07T08:40:41.849Z,98443.00
2023-04-07T08:43:12.136Z,98447.00
2023-04-07T08:45:44.331Z,98450.00
2023-04-07T08:48:23.606Z,98449.00
2023-04-07T08:51:01.557Z,98442.00
2023-04-07T08:53:43.095Z,98435.00
2023-04-07T08:56:16.390Z,98432.00
2023-04-07T08:58:48.085Z,98425.00
2023-04-07T09:01:18.572Z,98418.00
2023-04-07T09:03:50.081Z,98419.00
2023-04-07T09:06:20.877Z,98419.00
2023-04-07T09:08:50.159Z,98414.00
2023-04-07T09:11:24.611Z,98410.00
2023-04-07T09:13:54.045Z,98411.00
2023-04-07T09:16:26.997Z,98415.00
2023-04-07T09:18:56.778Z,98414.00
2023-04-07T09:21:28.641Z,98410.00
2023-04-07T09:23:58.075Z,98416.00
2023-04-07T09:29:23.455Z,98412.00
2023-04-07T09:31:55.982Z,98405.00
2023-04-07T09:34:35.629Z,98413.00
2023-04-07T09:37:08.660Z,98407.00
2023-04-07T09:39:57.373Z,98409.00
2023-04-07T09:42:27.909Z,98418.00
2023-04-07T09:44:57.277Z,98418.00
2023-04-07T09:47:30.880Z,98418.00
2023-04-07T09:50:07.464Z,98422.00
2023-04-07T09:53:05.802Z,98422.00
2023-04-07T09:55:37.257Z,98418.00
2023-04-07T09:58:07.554Z,98415.00
2023-04-07T10:00:40.057Z,98410.00
2023-04-07T10:03:10.625Z,98416.00
2023-04-07T10:05:42.332Z,98422.00
2023-04-07T10:08:12.510Z,98418.00
2023-04-07T10:10:45.222Z,98423.00
2023-04-07T10:13:15.152Z,98422.00
2023-04-07T10:15:44.849Z,98425.00
2023-04-07T10:18:17.046Z,98424.00
2023-04-07T10:20:49.418Z,98430.00
2023-04-07T10:24:00.580Z,98423.00
2023-04-07T10:26:35.513Z,98426.00
2023-04-07T10:29:16.120Z,98423.00
2023-04-07T10:31:46.288Z,98427.00
2023-04-07T10:34:15.660Z,98434.00
2023-04-07T10:37:18.642Z,98440.00
2023-04-07T10:39:48.380Z,98440.00
2023-04-07T10:42:48.504Z,98440.00
2023-04-07T10:45:49.845Z,98447.00
2023-04-07T10:48:21.316Z,98445.00
2023-04-07T10:51:09.490Z,98446.00
2023-04-07T10:53:39.421Z,98455.00
2023-04-07T10:56:10.792Z,98468.00
2023-04-07T10:58:40.738Z,98462.00
2023-04-07T11:01:16.179Z,98465.00
2023-04-07T11:03:57.877Z,98466.00
2023-04-07T11:06:28.161Z,98467.00
2023-04-07T11:08:57.594Z,98471.00
2023-04-07T11:11:41.896Z,98482.00
2023-04-07T11:14:11.545Z,98474.00
2023-04-07T11:16:46.478Z,98481.00
2023-04-07T11:19:16.427Z,98483.00
2023-04-07T11:21:46.174Z,98490.00
2023-04-07T11:24:40.544Z,98490.00
2023-04-07T11:27:15.595Z,98497.00
2023-04-07T11:29:45.083Z,98498.00
2023-04-07T11:32:15.282Z,98503.00
2023-04-07T11:34:45.475Z,98515.00
2023-04-07T11:37:28.370Z,98519.00
2023-04-07T11:39:59.587Z,98526.00
2023-04-07T11:42:43.879Z,98526.00
2023-04-07T11:45:21.720Z,98540.00
2023-04-07T11:47:51.956Z,98535.00
2023-04-07T11:50:44.754Z,98534.00
2023-04-07T11:53:14.217Z,98539.00
2023-04-07T11:55:43.461Z,98546.00
2023-04-07T11:58:13.473Z,98560.00
2023-04-07T12:00:58.092Z,98559.00
2023-04-07T12:03:28.444Z,98567.00
2023-04-07T12:05:57.848Z,98564.00
2023-04-07T12:08:48.268Z,98582.00
2023-04-07T12:11:17.554Z,98580.00
2023-04-07T12:13:46.995Z,98583.00
2023-04-07T12:16:16.616Z,98582.00
2023-04-07T12:18:46.200Z,98595.00
2023-04-07T12:21:15.584Z,98597.00
2023-04-07T12:23:44.917Z,98600.00
2023-04-07T12:26:14.487Z,98607.00
2023-04-07T12:28:44.005Z,98613.00
2023-04-07T12:31:13.386Z,98616.00
2023-04-07T12:33:42.652Z,98625.00
2023-04-07T12:36:12.182Z,98628.00
2023-04-07T12:38:41.590Z,98636.00
2023-04-07T12:41:10.838Z,98639.00
2023-04-07T12:43:40.058Z,98638.00
2023-04-07T12:46:09.512Z,98655.00
2023-04-07T12:48:38.928Z,98653.00
2023-04-07T12:51:08.396Z,98655.00
2023-04-07T12:53:37.803Z,98649.00
2023-04-07T12:56:12.084Z,98650.00
2023-04-07T12:58:42.460Z,98658.00
2023-04-07T13:01:11.877Z,98663.00
2023-04-07T13:03:42.073Z,98678.00
2023-04-07T13:06:12.010Z,98675.00
2023-04-07T13:08:42.249Z,98683.00
2023-04-07T13:11:11.682Z,98691.00
2023-04-07T13:13:40.987Z,98698.00
2023-04-07T13:16:19.820Z,98704.00
2023-04-07T13:18:52.862Z,98708.00
2023-04-07T13:24:14.188Z,98711.00
2023-04-07T13:26:45.668Z,98718.00
2023-04-07T13:32:16.956Z,98726.00
2023-04-07T13:34:46.647Z,98731.00
2023-04-07T13:37:20.579Z,98738.00
2023-04-07T13:40:01.294Z,98738.00
2023-04-07T13:45:18.825Z,98742.00
2023-04-07T13:48:05.096Z,98747.00
2023-04-07T13:50:53.834Z,98752.00
2023-04-07T13:53:26.250Z,98759.00
2023-04-07T13:55:57.935Z,98766.00
2023-04-07T13:58:27.923Z,98772.00
2023-04-07T14:01:02.180Z,98774.00
2023-04-07T14:03:39.238Z,98775.00
2023-04-07T14:06:08.694Z,98770.00
2023-04-07T14:08:38.017Z,98779.00
2023-04-07T14:11:19.855Z,98775.00
2023-04-07T14:14:01.421Z,98781.00
2023-04-07T14:16:30.846Z,98778.00
2023-04-07T14:19:12.994Z,98775.00
2023-04-07T14:21:45.269Z,98779.00
2023-04-07T14:24:14.636Z,98779.00
2023-04-07T14:26:58.040Z,98780.00
2023-04-07T14:29:27.590Z,98780.00
2023-04-07T14:32:08.900Z,98780.00
2023-04-07T14:34:42.536Z,98777.00
2023-04-07T14:37:19.743Z,98777.00
2023-04-07T14:40:01.895Z,98782.00
2023-04-07T14:42:35.261Z,98788.00
2023-04-07T14:45:14.701Z,98792.00
2023-04-07T14:47:47.731Z,98800.00
2023-04-07T14:50:17.541Z,98786.00
2023-04-07T14:52:49.888Z,98792.00
2023-04-07T14:55:22.184Z,98787.00
2023-04-07T15:00:59.855Z,98793.00
2023-04-07T15:06:23.888Z,98793.00
2023-04-07T15:09:03.748Z,98785.00
2023-04-07T15:14:18.553Z,98788.00
2023-04-07T15:16:49.468Z,98783.00
2023-04-07T15:19:49.442Z,98780.00
2023-04-07T15:22:27.702Z,98785.00
2023-04-07T15:24:58.081Z,98774.00
2023-04-07T15:27:34.682Z,98781.00
2023-04-07T15:30:22.290Z,98774.00
2023-04-07T15:33:08.059Z,98772.00
2023-04-07T15:35:39.475Z,98772.00
2023-04-07T15:38:14.875Z,98768.00
2023-04-07T15:40:44.367Z,98771.00
2023-04-07T15:43:16.416Z,98765.00
2023-04-07T15:45:53.694Z,98761.00
2023-04-07T15:48:25.986Z,98758.00
2023-04-07T15:50:59.239Z,98761.00
2023-04-07T15:53:31.750Z,98759.00
2023-04-07T15:56:13.796Z,98759.00
2023-04-07T15:58:55.030Z,98753.00
2023-04-07T16:01:24.495Z,98746.00
2023-04-07T16:03:59.864Z,98742.00
2023-04-07T16:06:32.115Z,98744.00
2023-04-07T16:09:01.518Z,98744.00
2023-04-07T16:11:30.915Z,98740.00
2023-04-07T16:14:00.198Z,98747.00
2023-04-07T16:16:29.396Z,98744.00
2023-04-07T16:18:58.687Z,98743.00
2023-04-07T16:21:28.345Z,98750.00
2023-04-07T16:24:00.204Z,98750.00
2023-04-07T16:26:29.424Z,98746.00
2023-04-07T16:28:58.721Z,98750.00
2023-04-07T16:31:34.981Z,98744.00
2023-04-07T16:34:04.230Z,98737.00
2023-04-07T16:36:45.829Z,98732.00
2023-04-07T16:39:15.019Z,98733.00
2023-04-07T16:41:44.230Z,98732.00
2023-04-07T16:44:13.579Z,98726.00
2023-04-07T16:46:47.397Z,98735.00
2023-04-07T16:49:16.732Z,98733.00
2023-04-07T16:51:45.967Z,98730.00
2023-04-07T16:54:15.170Z,98730.00
2023-04-07T16:56:44.483Z,98728.00
2023-04-07T16:59:13.886Z,98733.00
2023-04-07T17:01:48.775Z,98721.00
2023-04-07T17:04:18.091Z,98731.00
2023-04-07T17:06:47.535Z,98727.00
2023-04-07T17:09:20.906Z,98727.00
2023-04-07T17:11:51.594Z,98735.00
2023-04-07T17:14:32.032Z,98733.00
2023-04-07T17:17:04.297Z,98738.00
2023-04-07T17:19:33.643Z,98737.00
2023-04-07T17:22:02.841Z,98734.00
2023-04-07T17:24:32.168Z,98739.00
2023-04-07T17:27:01.527Z,98740.00
2023-04-07T17:29:35.644Z,98739.00
2023-04-07T17:32:09.481Z,98743.00
2023-04-07T17:34:38.720Z,98737.00
2023-04-07T17:37:07.989Z,98734.00
2023-04-07T17:39:37.153Z,98730.00
2023-04-07T17:42:06.378Z,98733.00
2023-04-07T17:44:36.792Z,98729.00
2023-04-07T17:47:08.915Z,98721.00
2023-04-07T17:49:38.725Z,98722.00
2023-04-07T17:52:08.217Z,98712.00
2023-04-07T17:54:37.475Z,98715.00
2023-04-07T17:57:07.306Z,98710.00
2023-04-07T17:59:38.206Z,98711.00
2023-04-07T18:02:11.237Z,98705.00
2023-04-07T18:04:41.487Z,98714.00
2023-04-07T18:07:13.685Z,98706.00
2023-04-07T18:09:44.046Z,98711.00
2023-04-07T18:12:13.462Z,98712.00
2023-04-07T18:14:46.706Z,98705.00
2023-04-07T18:17:16.717Z,98705.00
2023-04-07T18:19:46.516Z,98702.00
2023-04-07T18:22:17.213Z,98707.00
2023-04-07T18:24:47.002Z,98701.00
2023-04-07T18:27:16.416Z,98699.00
2023-04-07T18:29:45.777Z,98694.00
2023-04-07T18:32:14.959Z,98693.00
2023-04-07T18:34:44.176Z,98703.00
2023-04-07T18:37:13.385Z,98694.00
2023-04-07T18:39:44.147Z,98692.00
2023-04-07T18:42:13.445Z,98687.00
2023-04-07T18:44:42.819Z,98689.00
2023-04-07T18:47:12.040Z,98693.00
2023-04-07T18:49:41.233Z,98706.00
2023-04-07T18:52:10.689Z,98703.00
2023-04-07T18:54:39.918Z,98706.00
2023-04-07T18:57:09.079Z,98691.00
2023-04-07T18:59:38.279Z,98706.00
2023-04-07T19:02:08.200Z,98706.00
2023-04-07T19:04:37.839Z,98712.00
2023-04-07T19:07:07.121Z,98714.00
2023-04-07T19:09:37.724Z,98704.00
2023-04-07T19:12:07.169Z,98705.00
2023-04-07T19:14:36.438Z,98708.00
2023-04-07T19:17:05.783Z,98707.00
2023-04-07T19:19:35.414Z,98710.00
2023-04-07T19:22:04.626Z,98708.00
2023-04-07T19:24:35.078Z,98713.00
2023-04-07T19:27:05.290Z,98713.00
2023-04-07T19:29:36.268Z,98707.00
2023-04-07T19:32:05.691Z,98707.00
2023-04-07T19:34:35.367Z,98708.00
2023-04-07T19:37:04.542Z,98704.00
2023-04-07T19:39:33.853Z,98709.00
2023-04-07T19:42:03.212Z,98704.00
2023-04-07T19:44:32.891Z,98698.00
2023-04-07T19:47:02.253Z,98697.00
2023-04-07T19:49:34.690Z,98698.00
2023-04-07T19:52:04.435Z,98703.00
2023-04-07T19:54:33.755Z,98696.00
2023-04-07T19:57:03.057Z,98699.00
2023-04-07T19:59:32.346Z,98693.00
2023-04-07T20:02:01.606Z,98695.00
2023-04-07T20:04:30.965Z,98698.00
2023-04-07T20:07:00.144Z,98696.00
2023-04-07T20:09:29.630Z,98688.00
2023-04-07T20:11:59.316Z,98688.00
2023-04-07T20:14:28.498Z,98685.00
2023-04-07T20:16:58.362Z,98690.00
2023-04-07T20:19:27.725Z,98690.00
2023-04-07T20:21:57.578Z,98691.00
2023-04-07T20:24:26.977Z,98699.00
2023-04-07T20:26:56.969Z,98703.00
2023-04-07T20:29:26.634Z,98707.00
2023-04-07T20:31:56.530Z,98709.00
2023-04-07T20:34:25.746Z,98709.00
2023-04-07T20:36:56.240Z,98720.00
2023-04-07T20:39:25.526Z,98719.00
2023-04-07T20:41:54.812Z,98717.00
2023-04-07T20:44:24.443Z,98719.00
2023-04-07T20:46:54.065Z,98723.00
2023-04-07T20:49:23.446Z,98721.00
2023-04-07T20:51:52.702Z,98719.00
2023-04-07T20:54:21.939Z,98717.00
2023-04-07T20:56:51.472Z,98718.00
2023-04-07T20:59:20.655Z,98715.00
2023-04-07T21:01:49.991Z,98721.00
2023-04-07T21:04:19.582Z,98728.00
2023-04-07T21:06:48.884Z,98727.00
2023-04-07T21:09:18.816Z,98726.00
2023-04-07T21:11:48.071Z,98727.00
2023-04-07T21:14:17.281Z,98723.00
2023-04-07T21:16:46.657Z,98724.00
2023-04-07T21:19:16.799Z,98723.00
2023-04-07T21:21:46.480Z,98720.00
2023-04-07T21:24:15.755Z,98725.00
2023-04-07T21:26:44.969Z,98719.00
2023-04-07T21:29:14.226Z,98719.00
2023-04-07T21:31:43.807Z,98718.00
2023-04-07T21:34:13.222Z,98729.00
2023-04-07T21:36:42.513Z,98728.00
2023-04-07T21:39:11.751Z,98731.00
2023-04-07T21:41:40.945Z,98737.00
2023-04-07T21:44:11.820Z,98743.00
2023-04-07T21:46:41.960Z,98736.00
2023-04-07T21:49:11.396Z,98736.00
2023-04-07T21:51:40.677Z,98742.00
2023-04-07T21:54:09.997Z,98742.00
2023-04-07T21:56:39.404Z,98750.00
2023-04-07T21:59:08.927Z,98758.00
2023-04-07T22:01:38.618Z,98749.00
2023-04-07T22:04:08.279Z,98752.00
2023-04-07T22:06:37.518Z,98752.00
2023-04-07T22:09:08.983Z,98755.00
2023-04-07T22:11:38.222Z,98748.00
2023-04-07T22:14:07.578Z,98756.00
2023-04-07T22:16:37.145Z,98752.00
2023-04-07T22:19:09.541Z,98755.00
2023-04-07T22:21:39.434Z,98754.00
2023-04-07T22:24:08.716Z,98762.00
2023-04-07T22:26:38.715Z,98766.00
2023-04-07T22:29:15.966Z,98773.00
2023-04-07T22:31:45.376Z,98781.00
2023-04-07T22:34:14.758Z,98786.00
2023-04-07T22:36:44.371Z,98796.00
2023-04-07T22:39:28.801Z,98809.00
2023-04-07T22:41:58.308Z,98814.00
2023-04-07T22:44:27.671Z,98823.00
2023-04-07T22:46:57.480Z,98819.00
2023-04-07T22:49:29.602Z,98818.00
2023-04-07T22:51:58.895Z,98825.00
2023-04-07T22:54:28.266Z,98827.00
2023-04-07T22:56:58.424Z,98832.00
2023-04-07T22:59:27.825Z,98841.00
2023-04-07T23:01:57.921Z,98846.00
2023-04-07T23:04:28.199Z,98845.00
2023-04-07T23:06:57.884Z,98848.00
2023-04-07T23:09:27.405Z,98853.00
2023-04-07T23:11:58.014Z,98858.00
2023-04-07T23:14:27.349Z,98862.00
2023-04-07T23:16:57.461Z,98864.00
2023-04-07T23:19:27.002Z,98872.00
2023-04-07T23:21:56.371Z,98875.00
2023-04-07T23:24:25.717Z,98881.00
2023-04-07T23:26:55.125Z,98881.00
2023-04-07T23:29:24.431Z,98889.00
2023-04-07T23:31:53.720Z,98901.00
2023-04-07T23:34:23.132Z,98901.00
2023-04-07T23:36:52.768Z,98906.00
2023-04-07T23:39:22.090Z,98909.00
2023-04-07T23:41:51.346Z,98915.00
2023-04-07T23:44:20.704Z,98918.00
2023-04-07T23:46:49.980Z,98912.00
2023-04-07T23:49:20.080Z,98924.00
2023-04-07T23:51:49.426Z,98919.00
2023-04-07T23:54:18.775Z,98933.00
2023-04-07T23:56:48.542Z,98936.00
2023-04-07T23:59:17.910Z,98937.00
